createdAt,value
2023-05-19T00:00:51.078Z,86.61
2023-05-19T00:02:54.521Z,87.28
2023-05-19T00:04:58.582Z,86.25
2023-05-19T00:07:02.627Z,88.13
2023-05-19T00:09:07.566Z,88.05
2023-05-19T00:11:11.570Z,87.11
2023-05-19T00:13:14.941Z,87.26
2023-05-19T00:15:20.440Z,87.41
2023-05-19T00:17:24.049Z,88.20
2023-05-19T00:19:27.119Z,86.39
2023-05-19T00:21:31.698Z,88.17
2023-05-19T00:23:34.551Z,87.42
2023-05-19T00:25:37.772Z,88.10
2023-05-19T00:27:40.820Z,88.63
2023-05-19T00:29:44.090Z,88.04
2023-05-19T00:31:48.482Z,89.28
2023-05-19T00:33:52.502Z,87.15
2023-05-19T00:35:55.438Z,88.61
2023-05-19T00:37:58.455Z,88.17
2023-05-19T00:40:01.443Z,89.07
2023-05-19T00:42:06.181Z,88.64
2023-05-19T00:44:09.119Z,88.26
2023-05-19T00:46:12.155Z,87.27
2023-05-19T00:48:16.892Z,88.90
2023-05-19T00:50:19.992Z,87.71
2023-05-19T00:52:23.341Z,88.00
2023-05-19T00:54:28.374Z,89.14
2023-05-19T00:56:32.222Z,88.17
2023-05-19T00:58:37.338Z,88.60
2023-05-19T01:00:40.507Z,89.45
2023-05-19T01:02:44.064Z,89.04
2023-05-19T01:04:49.264Z,88.78
2023-05-19T01:06:55.247Z,88.44
2023-05-19T01:08:58.573Z,88.46
2023-05-19T01:11:01.815Z,89.02
2023-05-19T01:13:05.967Z,89.65
2023-05-19T01:15:10.434Z,89.29
2023-05-19T01:17:20.971Z,87.86
2023-05-19T01:19:41.382Z,88.93
2023-05-19T01:22:23.372Z,89.24
2023-05-19T01:25:00.257Z,89.15
2023-05-19T01:27:24.660Z,89.44
2023-05-19T01:29:42.902Z,89.26
2023-05-19T01:31:50.763Z,89.22
2023-05-19T01:33:55.094Z,88.32
2023-05-19T01:36:03.593Z,88.70
2023-05-19T01:38:09.548Z,89.62
2023-05-19T01:40:13.521Z,89.51
2023-05-19T01:42:18.326Z,89.31
2023-05-19T01:44:22.525Z,89.84
2023-05-19T01:46:25.998Z,89.29
2023-05-19T01:48:31.028Z,89.28
2023-05-19T01:50:34.939Z,88.76
2023-05-19T01:52:38.226Z,89.53
2023-05-19T01:54:41.234Z,89.35
2023-05-19T01:56:50.537Z,89.15
2023-05-19T01:58:59.528Z,90.02
2023-05-19T02:01:11.782Z,90.00
2023-05-19T02:03:27.198Z,89.17
2023-05-19T02:05:38.842Z,89.68
2023-05-19T02:07:50.948Z,90.10
2023-05-19T02:10:02.958Z,91.25
2023-05-19T02:12:14.626Z,91.27
2023-05-19T02:14:21.614Z,91.02
2023-05-19T02:16:29.224Z,89.82
2023-05-19T02:18:33.620Z,89.26
2023-05-19T02:20:38.705Z,89.83
2023-05-19T02:22:43.121Z,89.48
2023-05-19T02:24:48.063Z,89.53
2023-05-19T02:26:52.130Z,89.66
2023-05-19T02:28:55.354Z,89.75
2023-05-19T02:31:00.410Z,89.46
2023-05-19T02:33:07.041Z,90.29
2023-05-19T02:35:10.474Z,89.62
2023-05-19T02:37:15.807Z,90.07
2023-05-19T02:39:18.731Z,90.31
2023-05-19T02:41:22.670Z,90.24
2023-05-19T02:43:25.783Z,89.42
2023-05-19T02:45:29.105Z,89.86
2023-05-19T02:47:35.458Z,89.70
2023-05-19T02:49:40.214Z,90.25
2023-05-19T02:51:43.503Z,90.55
2023-05-19T02:53:48.357Z,90.13
2023-05-19T02:55:51.788Z,89.96
2023-05-19T02:57:54.995Z,90.38
2023-05-19T02:59:58.062Z,91.15
2023-05-19T03:02:02.345Z,90.17
2023-05-19T03:04:05.903Z,90.78
2023-05-19T03:06:09.634Z,90.64
2023-05-19T03:08:12.813Z,90.29
2023-05-19T03:10:17.253Z,90.49
2023-05-19T03:12:20.211Z,91.27
2023-05-19T03:14:24.884Z,90.22
2023-05-19T03:16:28.470Z,89.20
2023-05-19T03:18:32.108Z,91.48
2023-05-19T03:20:35.218Z,90.71
2023-05-19T03:22:38.628Z,90.38
2023-05-19T03:24:41.606Z,91.01
2023-05-19T03:26:46.308Z,91.78
2023-05-19T03:28:49.617Z,90.03
2023-05-19T03:30:52.546Z,90.96
2023-05-19T03:33:01.961Z,90.53
2023-05-19T03:35:05.975Z,90.55
2023-05-19T03:37:11.014Z,90.97
2023-05-19T03:39:15.876Z,90.49
2023-05-19T03:41:19.765Z,91.63
2023-05-19T03:43:24.486Z,90.73
2023-05-19T03:45:34.806Z,92.23
2023-05-19T03:47:50.358Z,91.03
2023-05-19T03:50:14.156Z,92.03
2023-05-19T03:52:28.440Z,91.73
2023-05-19T03:54:55.289Z,91.71
2023-05-19T03:56:58.579Z,92.12
2023-05-19T03:59:03.058Z,90.84
2023-05-19T04:01:06.043Z,91.76
2023-05-19T04:03:09.338Z,92.13
2023-05-19T04:05:12.434Z,90.84
2023-05-19T04:07:15.604Z,92.05
2023-05-19T04:09:19.763Z,91.20
2023-05-19T04:11:22.755Z,90.79
2023-05-19T04:13:25.958Z,91.12
2023-05-19T04:15:30.705Z,90.89
2023-05-19T04:17:33.720Z,91.02
2023-05-19T04:19:36.827Z,92.14
2023-05-19T04:21:41.182Z,91.03
2023-05-19T04:23:44.322Z,92.39
2023-05-19T04:25:49.096Z,92.20
2023-05-19T04:27:53.292Z,91.89
2023-05-19T04:29:56.436Z,91.96
2023-05-19T04:32:01.385Z,90.74
2023-05-19T04:34:04.613Z,91.48
2023-05-19T04:36:10.836Z,91.16
2023-05-19T04:38:19.218Z,90.91
2023-05-19T04:40:24.439Z,92.76
2023-05-19T04:42:30.943Z,92.91
2023-05-19T04:44:40.418Z,91.91
2023-05-19T04:46:45.542Z,92.77
2023-05-19T04:48:50.571Z,90.92
2023-05-19T04:50:53.513Z,92.32
2023-05-19T04:52:56.920Z,90.45
2023-05-19T04:55:01.566Z,91.76
2023-05-19T04:57:05.165Z,91.40
2023-05-19T04:59:11.449Z,91.40
2023-05-19T05:01:16.431Z,91.76
2023-05-19T05:03:19.639Z,90.35
2023-05-19T05:05:24.906Z,91.04
2023-05-19T05:07:28.937Z,91.98
2023-05-19T05:09:33.436Z,91.17
2023-05-19T05:11:39.084Z,92.66
2023-05-19T05:13:42.554Z,91.79
2023-05-19T05:15:46.502Z,90.96
2023-05-19T05:17:50.461Z,92.42
2023-05-19T05:19:54.578Z,90.99
2023-05-19T05:21:59.654Z,92.42
2023-05-19T05:24:03.160Z,90.27
2023-05-19T05:26:17.344Z,91.23
2023-05-19T05:28:21.680Z,91.38
2023-05-19T05:30:25.110Z,89.88
2023-05-19T05:32:29.543Z,90.86
2023-05-19T05:34:32.976Z,89.60
2023-05-19T05:36:36.008Z,88.79
2023-05-19T05:38:40.564Z,89.36
2023-05-19T05:40:43.661Z,88.51
2023-05-19T05:42:46.843Z,89.66
2023-05-19T05:44:49.821Z,89.69
2023-05-19T05:46:53.871Z,89.56
2023-05-19T05:48:58.329Z,88.44
2023-05-19T05:51:01.764Z,88.10
2023-05-19T05:53:09.342Z,89.02
2023-05-19T05:55:20.647Z,86.75
2023-05-19T05:57:24.859Z,88.16
2023-05-19T05:59:27.844Z,88.24
2023-05-19T06:01:32.183Z,87.78
2023-05-19T06:03:38.532Z,87.85
2023-05-19T06:05:43.581Z,87.68
2023-05-19T06:07:47.035Z,86.44
2023-05-19T06:09:57.125Z,85.69
2023-05-19T06:12:01.881Z,85.12
2023-05-19T06:14:10.305Z,86.33
2023-05-19T06:16:27.031Z,85.33
2023-05-19T06:18:30.333Z,84.24
2023-05-19T06:20:33.932Z,86.04
2023-05-19T06:22:38.201Z,86.24
2023-05-19T06:24:42.341Z,85.57
2023-05-19T06:26:46.289Z,85.69
2023-05-19T06:28:50.842Z,86.17
2023-05-19T06:30:53.924Z,85.66
2023-05-19T06:33:04.387Z,85.08
2023-05-19T06:35:09.196Z,84.74
2023-05-19T06:37:12.380Z,84.99
2023-05-19T06:39:15.387Z,83.68
2023-05-19T06:41:18.522Z,84.82
2023-05-19T06:43:23.411Z,83.90
2023-05-19T06:45:36.707Z,85.04
2023-05-19T06:47:44.883Z,85.33
2023-05-19T06:49:51.994Z,84.16
2023-05-19T06:51:54.983Z,83.26
2023-05-19T06:53:58.247Z,84.95
2023-05-19T06:56:01.336Z,83.06
2023-05-19T06:58:08.849Z,83.33
2023-05-19T07:00:14.597Z,82.49
2023-05-19T07:02:24.108Z,84.09
2023-05-19T07:04:27.664Z,83.17
2023-05-19T07:06:32.307Z,83.15
2023-05-19T07:08:37.563Z,82.36
2023-05-19T07:10:42.671Z,80.96
2023-05-19T07:12:48.877Z,81.87
2023-05-19T07:14:53.704Z,81.45
2023-05-19T07:16:57.033Z,82.12
2023-05-19T07:19:01.939Z,79.70
2023-05-19T07:21:05.110Z,80.80
2023-05-19T07:23:08.095Z,81.35
2023-05-19T07:25:11.920Z,81.61
2023-05-19T07:27:15.556Z,81.34
2023-05-19T07:29:18.557Z,81.93
2023-05-19T07:31:21.552Z,79.78
2023-05-19T07:33:24.518Z,81.50
2023-05-19T07:35:29.003Z,81.03
2023-05-19T07:37:31.921Z,80.53
2023-05-19T07:39:36.293Z,79.56
2023-05-19T07:41:39.264Z,80.13
2023-05-19T07:43:42.582Z,81.09
2023-05-19T07:45:45.672Z,80.96
2023-05-19T07:47:48.900Z,80.19
2023-05-19T07:49:52.057Z,79.43
2023-05-19T07:51:56.916Z,80.94
2023-05-19T07:53:59.991Z,80.81
2023-05-19T07:56:03.500Z,80.23
2023-05-19T07:58:06.436Z,81.16
2023-05-19T08:00:12.873Z,81.01
2023-05-19T08:02:16.925Z,81.04
2023-05-19T08:04:20.224Z,80.76
2023-05-19T08:06:23.252Z,80.18
2023-05-19T08:08:27.869Z,80.03
2023-05-19T08:10:31.197Z,79.74
2023-05-19T08:12:34.498Z,81.96
2023-05-19T08:14:37.774Z,79.76
2023-05-19T08:16:42.606Z,80.36
2023-05-19T08:18:45.801Z,80.06
2023-05-19T08:20:48.963Z,79.72
2023-05-19T08:22:52.096Z,78.36
2023-05-19T08:24:57.226Z,80.19
2023-05-19T08:27:00.378Z,79.40
2023-05-19T08:29:03.489Z,78.66
2023-05-19T08:31:06.591Z,80.27
2023-05-19T08:33:09.644Z,77.73
2023-05-19T08:35:12.795Z,78.39
2023-05-19T08:37:16.110Z,77.96
2023-05-19T08:39:24.420Z,80.04
2023-05-19T08:41:29.179Z,80.08
2023-05-19T08:43:32.319Z,79.28
2023-05-19T08:45:35.568Z,79.47
2023-05-19T08:47:38.880Z,78.53
2023-05-19T08:49:45.666Z,77.74
2023-05-19T08:51:56.274Z,78.05
2023-05-19T08:54:05.079Z,78.75
2023-05-19T08:56:12.317Z,77.47
2023-05-19T08:58:20.764Z,78.42
2023-05-19T09:00:24.109Z,76.28
2023-05-19T09:02:28.425Z,78.63
2023-05-19T09:04:32.718Z,77.94
2023-05-19T09:06:35.983Z,78.68
2023-05-19T09:08:39.139Z,78.01
2023-05-19T09:10:42.274Z,75.81
2023-05-19T09:12:46.821Z,77.74
2023-05-19T09:14:51.582Z,78.77
2023-05-19T09:16:54.902Z,76.73
2023-05-19T09:18:58.689Z,77.45
2023-05-19T09:21:03.370Z,77.47
2023-05-19T09:23:06.596Z,76.60
2023-05-19T09:25:19.642Z,75.68
2023-05-19T09:27:25.994Z,78.04
2023-05-19T09:29:29.023Z,76.30
2023-05-19T09:31:34.530Z,76.63
2023-05-19T09:33:38.583Z,78.02
2023-05-19T09:35:47.255Z,75.23
2023-05-19T09:37:50.140Z,75.07
2023-05-19T09:39:53.974Z,76.24
2023-05-19T09:41:59.071Z,76.81
2023-05-19T09:44:02.016Z,75.50
2023-05-19T09:46:09.212Z,75.38
2023-05-19T09:48:16.908Z,75.58
2023-05-19T09:50:19.821Z,74.21
2023-05-19T09:52:23.424Z,75.35
2023-05-19T09:54:32.575Z,73.11
2023-05-19T09:56:36.143Z,75.52
2023-05-19T09:58:42.948Z,75.68
2023-05-19T10:00:47.179Z,74.84
2023-05-19T10:02:51.305Z,72.72
2023-05-19T10:04:56.514Z,74.37
2023-05-19T10:07:00.241Z,71.05
2023-05-19T10:09:04.943Z,75.18
2023-05-19T10:11:08.971Z,73.96
2023-05-19T10:13:13.064Z,73.72
2023-05-19T10:15:17.203Z,73.27
2023-05-19T10:17:20.543Z,73.40
2023-05-19T10:19:24.582Z,73.05
2023-05-19T10:21:29.492Z,71.35
2023-05-19T10:23:32.473Z,74.04
2023-05-19T10:25:36.963Z,72.55
2023-05-19T10:27:46.534Z,73.69
2023-05-19T10:29:51.324Z,72.26
2023-05-19T10:31:56.222Z,73.12
2023-05-19T10:34:23.994Z,73.07
2023-05-19T10:36:43.233Z,73.02
2023-05-19T10:38:53.974Z,72.49
2023-05-19T10:41:05.418Z,73.83
2023-05-19T10:43:18.221Z,73.44
2023-05-19T10:45:24.423Z,73.41
2023-05-19T10:47:28.022Z,72.24
2023-05-19T10:49:36.192Z,70.99
2023-05-19T10:51:40.631Z,73.58
2023-05-19T10:53:47.056Z,72.98
2023-05-19T10:55:56.371Z,71.77
2023-05-19T10:58:00.792Z,72.36
2023-05-19T11:00:11.915Z,69.88
2023-05-19T11:02:40.359Z,74.20
2023-05-19T11:04:51.075Z,71.30
2023-05-19T11:06:58.169Z,73.04
2023-05-19T11:09:10.660Z,72.63
2023-05-19T11:11:15.073Z,71.96
2023-05-19T11:13:22.756Z,69.21
2023-05-19T11:15:28.026Z,71.99
2023-05-19T11:17:33.087Z,73.53
2023-05-19T11:19:36.618Z,70.27
2023-05-19T11:21:44.016Z,70.93
2023-05-19T11:23:48.382Z,70.70
2023-05-19T11:25:54.187Z,72.39
2023-05-19T11:27:58.297Z,72.21
2023-05-19T11:30:02.576Z,71.42
2023-05-19T11:32:08.085Z,72.85
2023-05-19T11:34:11.350Z,73.35
2023-05-19T11:36:16.956Z,73.04
2023-05-19T11:38:20.326Z,71.93
2023-05-19T11:40:25.655Z,73.73
2023-05-19T11:42:28.719Z,72.99
2023-05-19T11:44:32.708Z,73.08
2023-05-19T11:46:35.848Z,75.10
2023-05-19T11:48:39.144Z,72.72
2023-05-19T11:50:42.718Z,70.64
2023-05-19T11:52:45.567Z,71.06
2023-05-19T11:54:49.300Z,72.39
2023-05-19T11:56:53.722Z,72.76
2023-05-19T11:58:56.658Z,70.80
2023-05-19T12:01:04.559Z,72.45
2023-05-19T12:03:08.472Z,69.29
2023-05-19T12:05:19.450Z,72.03
2023-05-19T12:07:24.542Z,70.35
2023-05-19T12:09:29.591Z,71.01
2023-05-19T12:11:32.456Z,71.14
2023-05-19T12:13:36.886Z,69.57
2023-05-19T12:15:39.921Z,69.72
2023-05-19T12:17:43.006Z,68.87
2023-05-19T12:19:47.482Z,71.37
2023-05-19T12:21:51.412Z,72.15
2023-05-19T12:23:54.842Z,71.38
2023-05-19T12:25:58.444Z,72.99
2023-05-19T12:28:05.130Z,70.29
2023-05-19T12:30:12.084Z,72.37
2023-05-19T12:32:15.834Z,70.39
2023-05-19T12:34:19.237Z,71.45
2023-05-19T12:36:25.176Z,70.35
2023-05-19T12:38:28.164Z,69.91
2023-05-19T12:40:31.472Z,71.40
2023-05-19T12:42:36.096Z,71.33
2023-05-19T12:44:42.985Z,70.40
2023-05-19T12:46:47.355Z,70.61
2023-05-19T12:48:50.491Z,69.73
2023-05-19T12:50:56.062Z,69.54
2023-05-19T12:53:00.244Z,71.51
2023-05-19T12:55:08.551Z,72.20
2023-05-19T12:57:11.918Z,71.02
2023-05-19T12:59:34.716Z,68.73
2023-05-19T13:01:41.202Z,71.46
2023-05-19T13:03:46.381Z,71.27
2023-05-19T13:05:50.894Z,71.58
2023-05-19T13:07:58.113Z,69.89
2023-05-19T13:10:01.214Z,68.99
2023-05-19T13:12:04.985Z,69.26
2023-05-19T13:14:08.088Z,70.58
2023-05-19T13:16:11.033Z,69.38
2023-05-19T13:18:14.733Z,69.41
2023-05-19T13:20:19.441Z,69.24
2023-05-19T13:22:22.595Z,72.03
2023-05-19T13:24:25.786Z,69.18
2023-05-19T13:26:28.926Z,69.20
2023-05-19T13:28:32.036Z,68.44
2023-05-19T13:30:36.610Z,67.91
2023-05-19T13:32:39.945Z,68.48
2023-05-19T13:34:42.958Z,70.43
2023-05-19T13:36:49.276Z,70.41
2023-05-19T13:38:52.335Z,70.24
2023-05-19T13:40:55.246Z,69.23
2023-05-19T13:42:58.374Z,70.88
2023-05-19T13:45:01.496Z,72.33
2023-05-19T13:47:05.058Z,71.83
2023-05-19T13:49:08.157Z,72.98
2023-05-19T13:51:11.304Z,71.64
2023-05-19T13:53:15.939Z,71.81
2023-05-19T13:55:19.368Z,72.49
2023-05-19T13:57:22.977Z,72.35
2023-05-19T13:59:26.698Z,72.30
2023-05-19T14:01:29.841Z,72.71
2023-05-19T14:03:32.910Z,72.13
2023-05-19T14:05:36.206Z,74.50
2023-05-19T14:07:39.270Z,73.42
2023-05-19T14:09:43.738Z,72.95
2023-05-19T14:11:47.039Z,72.73
2023-05-19T14:13:52.673Z,71.85
2023-05-19T14:15:56.257Z,72.36
2023-05-19T14:17:59.344Z,71.90
2023-05-19T14:20:02.582Z,72.70
2023-05-19T14:22:05.975Z,73.34
2023-05-19T14:24:09.055Z,73.38
2023-05-19T14:26:13.471Z,74.46
2023-05-19T14:28:16.535Z,73.51
2023-05-19T14:30:19.830Z,73.80
2023-05-19T14:32:23.006Z,73.48
2023-05-19T14:34:26.362Z,74.39
2023-05-19T14:36:29.512Z,74.28
2023-05-19T14:38:32.613Z,73.86
2023-05-19T14:40:37.642Z,73.34
2023-05-19T14:42:42.041Z,73.37
2023-05-19T14:44:45.703Z,73.83
2023-05-19T14:46:48.845Z,74.21
2023-05-19T14:48:51.901Z,75.41
2023-05-19T14:50:54.952Z,73.69
2023-05-19T14:52:58.506Z,74.14
2023-05-19T14:55:01.564Z,74.97
2023-05-19T14:57:07.535Z,74.05
2023-05-19T14:59:11.984Z,74.94
2023-05-19T15:01:15.003Z,76.12
2023-05-19T15:03:18.024Z,74.59
2023-05-19T15:05:22.064Z,74.30
2023-05-19T15:07:25.147Z,74.04
2023-05-19T15:09:28.279Z,74.96
2023-05-19T15:11:31.433Z,74.77
2023-05-19T15:13:34.873Z,75.87
2023-05-19T15:15:39.769Z,75.67
2023-05-19T15:17:43.059Z,75.91
2023-05-19T15:19:46.304Z,75.23
2023-05-19T15:21:50.950Z,74.80
2023-05-19T15:23:53.904Z,76.41
2023-05-19T15:25:57.025Z,75.66
2023-05-19T15:28:00.152Z,74.60
2023-05-19T15:30:03.184Z,75.47
2023-05-19T15:32:09.634Z,75.95
2023-05-19T15:34:12.332Z,76.12
2023-05-19T15:36:16.878Z,76.57
2023-05-19T15:38:20.427Z,76.49
2023-05-19T15:40:24.437Z,76.14
2023-05-19T15:42:27.826Z,76.75
2023-05-19T15:44:31.527Z,76.06
2023-05-19T15:46:35.133Z,76.20
2023-05-19T15:48:39.628Z,76.24
2023-05-19T15:50:42.814Z,76.30
2023-05-19T15:52:46.042Z,77.81
2023-05-19T15:54:49.233Z,77.45
2023-05-19T15:56:52.117Z,76.62
2023-05-19T15:58:55.150Z,76.34
2023-05-19T16:00:58.244Z,75.39
2023-05-19T16:03:01.878Z,75.97
2023-05-19T16:05:06.816Z,75.95
2023-05-19T16:07:09.948Z,76.43
2023-05-19T16:09:12.829Z,77.08
2023-05-19T16:11:16.096Z,76.69
2023-05-19T16:13:19.041Z,75.42
2023-05-19T16:15:22.285Z,76.30
2023-05-19T16:17:25.403Z,77.14
2023-05-19T16:19:28.482Z,77.28
2023-05-19T16:21:33.029Z,76.83
2023-05-19T16:23:36.083Z,77.05
2023-05-19T16:25:39.132Z,78.38
2023-05-19T16:27:42.309Z,78.81
2023-05-19T16:29:45.206Z,77.17
2023-05-19T16:31:48.256Z,77.07
2023-05-19T16:33:51.294Z,78.07
2023-05-19T16:35:54.375Z,78.57
2023-05-19T16:37:58.957Z,78.20
2023-05-19T16:40:02.182Z,78.25
2023-05-19T16:42:05.840Z,78.10
2023-05-19T16:44:08.854Z,78.79
2023-05-19T16:46:12.523Z,78.78
2023-05-19T16:48:15.738Z,79.63
2023-05-19T16:50:18.829Z,78.13
2023-05-19T16:52:22.029Z,79.74
2023-05-19T16:54:26.522Z,78.73
2023-05-19T16:56:29.618Z,79.11
2023-05-19T16:58:32.957Z,79.66
2023-05-19T17:00:36.277Z,80.27
2023-05-19T17:02:39.384Z,79.76
2023-05-19T17:04:42.403Z,80.38
2023-05-19T17:06:46.550Z,78.89
2023-05-19T17:08:49.708Z,78.97
2023-05-19T17:10:54.414Z,80.04
2023-05-19T17:12:57.603Z,79.75
2023-05-19T17:15:00.688Z,78.43
2023-05-19T17:17:04.164Z,79.52
2023-05-19T17:19:07.251Z,79.97
2023-05-19T17:21:10.296Z,79.31
2023-05-19T17:23:13.197Z,79.30
2023-05-19T17:25:17.125Z,78.83
2023-05-19T17:27:21.649Z,78.68
2023-05-19T17:29:24.998Z,79.29
2023-05-19T17:31:28.005Z,80.35
2023-05-19T17:33:31.063Z,80.23
2023-05-19T17:35:34.271Z,81.17
2023-05-19T17:37:37.932Z,80.73
2023-05-19T17:39:41.298Z,82.24
2023-05-19T17:41:44.613Z,81.91
2023-05-19T17:43:49.155Z,82.22
2023-05-19T17:45:52.345Z,82.05
2023-05-19T17:47:55.294Z,81.92
2023-05-19T17:50:00.944Z,82.01
2023-05-19T17:52:04.723Z,82.12
2023-05-19T17:54:08.388Z,81.67
2023-05-19T17:56:12.963Z,81.89
2023-05-19T17:58:16.865Z,81.21
2023-05-19T18:00:22.725Z,81.51
2023-05-19T18:02:26.654Z,82.63
2023-05-19T18:04:30.151Z,82.13
2023-05-19T18:06:33.384Z,82.13
2023-05-19T18:08:38.031Z,81.71
2023-05-19T18:10:42.572Z,81.23
2023-05-19T18:12:45.723Z,81.77
2023-05-19T18:14:50.394Z,82.21
2023-05-19T18:16:54.949Z,81.67
2023-05-19T18:18:58.047Z,82.32
2023-05-19T18:21:01.081Z,82.07
2023-05-19T18:23:04.211Z,82.58
2023-05-19T18:25:08.044Z,81.78
2023-05-19T18:27:11.104Z,81.08
2023-05-19T18:29:14.955Z,82.21
2023-05-19T18:31:20.060Z,81.24
2023-05-19T18:33:25.889Z,81.51
2023-05-19T18:35:29.973Z,81.74
2023-05-19T18:37:32.925Z,81.91
2023-05-19T18:39:36.113Z,82.02
2023-05-19T18:41:41.703Z,82.07
2023-05-19T18:43:45.124Z,81.65
2023-05-19T18:45:48.306Z,82.26
2023-05-19T18:47:51.388Z,80.84
2023-05-19T18:49:56.207Z,81.41
2023-05-19T18:51:59.213Z,81.02
2023-05-19T18:54:02.413Z,82.19
2023-05-19T18:56:06.056Z,81.81
2023-05-19T18:58:09.099Z,82.49
2023-05-19T19:00:14.176Z,82.26
2023-05-19T19:02:17.173Z,82.30
2023-05-19T19:04:20.396Z,83.07
2023-05-19T19:06:24.865Z,83.10
2023-05-19T19:08:27.825Z,83.09
2023-05-19T19:10:34.964Z,83.16
2023-05-19T19:12:38.264Z,83.39
2023-05-19T19:14:41.303Z,82.80
2023-05-19T19:16:44.473Z,83.40
2023-05-19T19:18:47.599Z,82.85
2023-05-19T19:20:50.609Z,83.03
2023-05-19T19:22:55.333Z,83.04
2023-05-19T19:24:58.392Z,83.73
2023-05-19T19:27:01.492Z,83.41
2023-05-19T19:29:04.511Z,82.97
2023-05-19T19:31:07.499Z,82.74
2023-05-19T19:33:10.592Z,82.47
2023-05-19T19:35:13.490Z,82.92
2023-05-19T19:37:16.924Z,82.66
2023-05-19T19:39:21.466Z,83.88
2023-05-19T19:41:26.425Z,83.72
2023-05-19T19:43:29.584Z,83.09
2023-05-19T19:45:34.997Z,83.34
2023-05-19T19:47:37.959Z,84.10
2023-05-19T19:49:41.376Z,83.94
2023-05-19T19:51:44.429Z,84.12
2023-05-19T19:53:47.294Z,84.83
2023-05-19T19:55:58.713Z,84.61
2023-05-19T19:58:01.657Z,84.80
2023-05-19T20:00:08.666Z,84.65
2023-05-19T20:02:12.349Z,84.10
2023-05-19T20:04:15.771Z,85.27
2023-05-19T20:06:18.782Z,84.83
2023-05-19T20:08:21.744Z,85.75
2023-05-19T20:10:24.691Z,84.56
2023-05-19T20:12:30.469Z,84.60
2023-05-19T20:14:33.516Z,84.58
2023-05-19T20:16:36.580Z,84.88
2023-05-19T20:18:39.914Z,85.05
2023-05-19T20:20:43.220Z,85.09
2023-05-19T20:22:46.313Z,85.38
2023-05-19T20:24:49.304Z,85.34
2023-05-19T20:26:52.289Z,85.47
2023-05-19T20:28:56.621Z,84.84
2023-05-19T20:30:59.614Z,85.88
2023-05-19T20:33:02.953Z,85.00
2023-05-19T20:35:07.123Z,85.74
2023-05-19T20:37:09.984Z,85.49
2023-05-19T20:39:13.083Z,85.68
2023-05-19T20:41:15.986Z,85.29
2023-05-19T20:43:18.911Z,85.34
2023-05-19T20:45:23.417Z,85.32
2023-05-19T20:47:27.754Z,85.43
2023-05-19T20:49:32.133Z,86.53
2023-05-19T20:51:35.414Z,85.89
2023-05-19T20:53:38.402Z,85.31
2023-05-19T20:55:41.537Z,85.11
2023-05-19T20:57:45.253Z,85.37
2023-05-19T20:59:48.245Z,85.29
2023-05-19T21:01:52.588Z,85.57
2023-05-19T21:03:55.777Z,85.48
2023-05-19T21:05:59.049Z,86.07
2023-05-19T21:08:03.227Z,85.39
2023-05-19T21:10:07.704Z,85.96
2023-05-19T21:12:10.908Z,86.32
2023-05-19T21:14:13.968Z,86.44
2023-05-19T21:16:17.098Z,86.24
2023-05-19T21:18:21.654Z,86.40
2023-05-19T21:20:24.974Z,86.65
2023-05-19T21:22:27.996Z,86.67
2023-05-19T21:24:31.430Z,86.46
2023-05-19T21:26:34.557Z,86.59
2023-05-19T21:28:37.567Z,86.37
2023-05-19T21:30:40.538Z,86.69
2023-05-19T21:32:43.610Z,86.56
2023-05-19T21:34:48.275Z,86.84
2023-05-19T21:36:51.327Z,87.26
2023-05-19T21:38:54.334Z,87.28
2023-05-19T21:40:57.318Z,86.91
2023-05-19T21:43:00.186Z,87.03
2023-05-19T21:45:03.316Z,86.98
2023-05-19T21:47:07.155Z,87.72
2023-05-19T21:49:10.119Z,87.09
2023-05-19T21:51:14.558Z,87.15
2023-05-19T21:53:17.536Z,86.99
2023-05-19T21:55:22.327Z,87.37
2023-05-19T21:57:25.629Z,87.79
2023-05-19T21:59:28.897Z,87.05
2023-05-19T22:01:32.566Z,87.07
2023-05-19T22:03:35.646Z,86.85
2023-05-19T22:05:39.026Z,86.72
2023-05-19T22:07:43.597Z,86.97
2023-05-19T22:09:48.842Z,87.94
2023-05-19T22:11:52.183Z,86.70
2023-05-19T22:13:55.155Z,87.27
2023-05-19T22:15:58.165Z,87.09
2023-05-19T22:18:01.569Z,87.40
2023-05-19T22:20:05.257Z,87.39
2023-05-19T22:22:14.318Z,87.43
2023-05-19T22:24:19.304Z,87.61
2023-05-19T22:26:22.515Z,87.44
2023-05-19T22:28:25.760Z,87.50
2023-05-19T22:30:28.916Z,87.79
2023-05-19T22:32:32.582Z,88.17
2023-05-19T22:34:35.609Z,88.02
2023-05-19T22:36:38.594Z,87.50
2023-05-19T22:38:41.664Z,87.15
2023-05-19T22:40:46.257Z,87.59
2023-05-19T22:42:49.318Z,87.44
2023-05-19T22:44:52.271Z,87.78
2023-05-19T22:46:55.252Z,87.95
2023-05-19T22:48:58.212Z,87.91
2023-05-19T22:51:01.244Z,87.44
2023-05-19T22:53:04.109Z,87.47
2023-05-19T22:55:08.158Z,88.21
2023-05-19T22:57:12.592Z,88.29
2023-05-19T22:59:18.165Z,87.90
2023-05-19T23:01:21.048Z,87.81
2023-05-19T23:03:24.041Z,87.40
2023-05-19T23:05:26.940Z,87.50
2023-05-19T23:07:29.972Z,87.75
2023-05-19T23:09:32.950Z,87.67
2023-05-19T23:11:36.351Z,87.75
2023-05-19T23:13:41.045Z,87.84
2023-05-19T23:15:44.114Z,87.88
2023-05-19T23:17:47.013Z,87.99
2023-05-19T23:19:50.039Z,87.84
2023-05-19T23:21:52.972Z,88.16
2023-05-19T23:23:56.240Z,87.92
2023-05-19T23:25:59.544Z,88.04
2023-05-19T23:28:02.533Z,88.11
2023-05-19T23:30:08.473Z,88.23
2023-05-19T23:32:11.509Z,88.43
2023-05-19T23:34:14.410Z,88.08
2023-05-19T23:36:18.051Z,87.95
2023-05-19T23:38:21.376Z,87.74
2023-05-19T23:40:24.253Z,87.17
2023-05-19T23:42:27.134Z,88.00
2023-05-19T23:44:30.145Z,88.28
2023-05-19T23:46:34.993Z,87.65
2023-05-19T23:48:38.076Z,88.38
2023-05-19T23:50:41.057Z,88.52
2023-05-19T23:52:44.187Z,87.76
2023-05-19T23:54:47.107Z,88.11
2023-05-19T23:56:50.192Z,88.51
2023-05-19T23:58:53.057Z,88.32
